Time;durP1;ratioP1;P1;durP2;ratioP2;P2;SDS_P1;SDS_P2;PMS_P1;PMS_P2;Temp;Humidity;BMP_temperature;BMP_pressure;BME280_temperature;BME280_humidity;BME280_pressure;Samples;Min_cycle;Max_cycle;Signal;HPM_P1;HPM_P2
2022/11/05 00:10:23;;;;;;;17.50;10.43;;;7.80;99.90;;;;;;5030625;28;20284;-72
2022/11/05 00:18:21;;;;;;;13.90;9.05;;;7.80;99.90;;;;;;5030732;28;20281;-75
2022/11/05 00:20:48;;;;;;;15.52;8.60;;;7.70;99.90;;;;;;5016955;28;20283;-75
2022/11/05 00:26:01;;;;;;;13.02;8.88;;;7.70;99.90;;;;;;5026272;28;20258;-75
2022/11/05 00:28:29;;;;;;;15.98;8.77;;;7.70;99.90;;;;;;5028730;28;20207;-73
2022/11/05 00:31:03;;;;;;;14.45;7.40;;;7.70;99.90;;;;;;5027629;28;20211;-74
2022/11/05 00:33:30;;;;;;;16.63;8.10;;;7.70;99.90;;;;;;5035560;28;20227;-75
2022/11/05 00:35:57;;;;;;;25.08;10.60;;;7.70;99.90;;;;;;5036243;28;21037;-76
2022/11/05 00:38:24;;;;;;;15.38;8.75;;;7.70;99.90;;;;;;5028587;28;20654;-75
2022/11/05 00:40:51;;;;;;;15.63;9.82;;;7.70;99.90;;;;;;5033716;28;20286;-75
2022/11/05 00:46:04;;;;;;;12.15;8.20;;;7.70;99.90;;;;;;5027169;28;20207;-74
2022/11/05 00:51:16;;;;;;;22.90;8.20;;;7.70;99.90;;;;;;5024001;28;20196;-74
2022/11/05 00:53:43;;;;;;;16.33;7.57;;;7.70;99.90;;;;;;5033526;28;20203;-73
2022/11/05 00:56:10;;;;;;;12.45;7.88;;;7.60;99.90;;;;;;5039321;28;20302;-73
2022/11/05 00:58:37;;;;;;;18.75;8.23;;;7.60;99.90;;;;;;5034419;28;20359;-74
2022/11/05 01:01:06;;;;;;;12.43;8.10;;;7.60;99.90;;;;;;5025433;28;20260;-75
2022/11/05 01:03:36;;;;;;;15.18;9.38;;;7.60;99.90;;;;;;5030119;28;20239;-74
2022/11/05 01:06:08;;;;;;;13.85;7.53;;;7.60;99.90;;;;;;5030841;28;20758;-75
2022/11/05 01:08:35;;;;;;;18.88;8.40;;;7.60;99.90;;;;;;5034484;28;20617;-74
2022/11/05 01:11:09;;;;;;;16.15;7.15;;;7.60;99.90;;;;;;5032538;28;20234;-74
2022/11/05 01:13:36;;;;;;;13.23;8.73;;;7.60;99.90;;;;;;5032107;28;20370;-74
2022/11/05 01:16:07;;;;;;;21.92;8.77;;;7.60;99.90;;;;;;5031861;28;20205;-75
2022/11/05 01:18:36;;;;;;;12.15;7.18;;;7.60;99.90;;;;;;5029412;28;20299;-74
2022/11/05 01:21:10;;;;;;;21.35;10.05;;;7.50;99.90;;;;;;5031683;28;20294;-74
2022/11/05 01:23:37;;;;;;;14.30;8.13;;;7.50;99.90;;;;;;5032866;28;20241;-73
2022/11/05 01:26:04;;;;;;;17.40;9.50;;;7.50;99.90;;;;;;5029750;28;20577;-74
2022/11/05 01:28:31;;;;;;;15.07;7.72;;;7.50;99.90;;;;;;5029243;28;20212;-73
2022/11/05 01:30:58;;;;;;;24.88;9.35;;;7.50;99.90;;;;;;5032316;28;20214;-74
2022/11/05 01:33:27;;;;;;;15.25;9.00;;;7.40;99.90;;;;;;5032029;28;20711;-74
2022/11/05 01:35:53;;;;;;;13.80;8.07;;;7.40;99.90;;;;;;5032004;28;20290;-75
2022/11/05 01:38:20;;;;;;;20.63;9.43;;;7.40;99.90;;;;;;5032278;28;20242;-75
2022/11/05 01:40:47;;;;;;;10.20;7.68;;;7.40;99.90;;;;;;5027967;28;20302;-74
2022/11/05 01:43:17;;;;;;;22.00;7.78;;;7.40;99.90;;;;;;5028027;28;20235;-74
2022/11/05 01:45:47;;;;;;;21.45;8.45;;;7.40;99.90;;;;;;5028428;28;20816;-75
2022/11/05 01:48:17;;;;;;;9.63;7.90;;;7.40;99.90;;;;;;5030943;28;20203;-74
2022/11/05 01:50:50;;;;;;;17.65;8.70;;;7.40;99.90;;;;;;5028443;28;20215;-75
2022/11/05 01:53:26;;;;;;;15.55;8.10;;;7.40;99.90;;;;;;5031643;28;20326;-74
2022/11/05 01:55:58;;;;;;;15.50;8.10;;;7.40;99.90;;;;;;5019614;28;20290;-73
2022/11/05 01:58:31;;;;;;;13.50;7.68;;;7.30;99.90;;;;;;5027855;28;20291;-73
2022/11/05 02:00:58;;;;;;;32.50;10.65;;;7.40;99.90;;;;;;5031895;28;20202;-74
2022/11/05 02:03:26;;;;;;;12.35;7.50;;;7.40;99.90;;;;;;5027123;28;20314;-74
2022/11/05 02:05:55;;;;;;;14.82;7.75;;;7.30;99.90;;;;;;5021633;28;20597;-72
2022/11/05 02:08:41;;;;;;;15.70;8.32;;;7.20;99.90;;;;;;5029022;28;20287;-74
2022/11/05 02:11:11;;;;;;;14.43;8.48;;;7.20;99.90;;;;;;5031045;28;20249;-74
2022/11/05 02:13:37;;;;;;;12.07;8.20;;;7.20;99.90;;;;;;5028152;28;20286;-74
2022/11/05 02:16:14;;;;;;;11.35;7.75;;;7.10;99.90;;;;;;5017684;28;20238;-73
2022/11/05 02:18:51;;;;;;;14.25;8.70;;;7.10;99.90;;;;;;5017055;28;20555;-75
2022/11/05 02:21:43;;;;;;;12.90;7.40;;;7.10;99.90;;;;;;5020243;28;20614;-74
2022/11/05 02:24:37;;;;;;;16.63;7.18;;;7.10;99.90;;;;;;5009572;28;20298;-74
2022/11/05 02:27:14;;;;;;;17.35;7.43;;;7.00;99.90;;;;;;5017684;28;20215;-72
2022/11/05 02:30:07;;;;;;;13.23;7.22;;;7.00;99.90;;;;;;5004407;28;20637;-72
2022/11/05 02:33:01;;;;;;;16.42;8.15;;;7.00;99.90;;;;;;5023584;28;20223;-72
2022/11/05 02:35:41;;;;;;;21.17;8.32;;;7.00;99.90;;;;;;5000125;28;20655;-74
2022/11/05 02:38:12;;;;;;;15.65;8.10;;;7.00;99.90;;;;;;5020876;28;20240;-75
2022/11/05 02:40:49;;;;;;;12.45;8.80;;;7.00;99.90;;;;;;5026975;28;20233;-74
2022/11/05 02:43:25;;;;;;;14.75;6.95;;;7.00;99.90;;;;;;5016696;28;20307;-74
2022/11/05 02:46:01;;;;;;;14.27;7.90;;;6.90;99.90;;;;;;5000838;28;20245;-75
2022/11/05 02:48:40;;;;;;;18.73;8.05;;;6.90;99.90;;;;;;4999268;28;20680;-75
2022/11/05 02:51:16;;;;;;;21.35;8.48;;;6.90;99.90;;;;;;5002272;28;20254;-74
2022/11/05 02:53:48;;;;;;;19.27;8.07;;;6.90;99.90;;;;;;5002403;28;20237;-75
2022/11/05 02:56:20;;;;;;;14.80;8.15;;;6.90;99.90;;;;;;5021558;28;20193;-74
2022/11/05 02:58:47;;;;;;;16.85;9.23;;;6.90;99.90;;;;;;5029669;28;20284;-75
2022/11/05 03:01:23;;;;;;;18.08;8.55;;;6.80;99.90;;;;;;5013995;28;20209;-72
2022/11/05 03:03:54;;;;;;;9.88;7.60;;;6.80;99.90;;;;;;5030789;28;20244;-73
2022/11/05 03:06:48;;;;;;;16.30;11.25;;;6.80;99.90;;;;;;5023522;28;20199;-73
2022/11/05 03:09:55;;;;;;;20.88;9.38;;;6.80;99.90;;;;;;5012804;28;20668;-73
2022/11/05 03:12:31;;;;;;;13.85;7.63;;;6.70;99.90;;;;;;5015301;28;20304;-74
2022/11/05 03:15:05;;;;;;;12.35;8.55;;;6.70;99.90;;;;;;5013359;28;20253;-75
2022/11/05 03:17:42;;;;;;;16.52;9.18;;;6.70;99.90;;;;;;5011810;28;20240;-74
2022/11/05 03:20:18;;;;;;;10.63;9.10;;;6.70;99.90;;;;;;5010771;28;20677;-74
2022/11/05 03:22:51;;;;;;;17.50;9.45;;;6.70;99.90;;;;;;5015291;28;20230;-73
2022/11/05 03:25:22;;;;;;;19.55;8.85;;;6.70;99.90;;;;;;5022515;28;20287;-74
2022/11/05 03:27:54;;;;;;;13.63;7.47;;;6.70;99.90;;;;;;5025466;28;20604;-73
2022/11/05 03:30:21;;;;;;;10.73;7.80;;;6.60;99.90;;;;;;5020568;28;20202;-73
2022/11/05 03:32:54;;;;;;;13.70;8.20;;;6.70;99.90;;;;;;5030769;28;20309;-74
2022/11/05 03:35:25;;;;;;;11.43;8.15;;;6.60;99.90;;;;;;5026584;28;20299;-74
2022/11/05 03:37:56;;;;;;;12.45;8.90;;;6.70;99.90;;;;;;5017965;28;20211;-74
2022/11/05 03:40:24;;;;;;;14.90;8.88;;;6.70;99.90;;;;;;5016018;28;20211;-74
2022/11/05 03:42:56;;;;;;;14.40;7.50;;;6.70;99.90;;;;;;5022339;28;20269;-75
2022/11/05 03:45:28;;;;;;;14.88;7.70;;;6.70;99.90;;;;;;5016426;28;20212;-74
2022/11/05 03:47:59;;;;;;;16.48;7.90;;;6.70;99.90;;;;;;5027632;28;20254;-73
2022/11/05 03:50:34;;;;;;;14.35;7.47;;;6.60;99.90;;;;;;5027808;28;20284;-74
2022/11/05 03:53:04;;;;;;;8.90;6.60;;;6.60;99.90;;;;;;5007692;28;20230;-72
2022/11/05 03:55:38;;;;;;;12.02;6.55;;;6.70;99.90;;;;;;5018286;28;20208;-75
2022/11/05 03:58:06;;;;;;;12.73;7.20;;;6.70;99.90;;;;;;5017424;28;20290;-75
2022/11/05 04:00:33;;;;;;;14.50;7.03;;;6.70;99.90;;;;;;5016565;28;20243;-75
2022/11/05 04:03:00;;;;;;;16.38;7.28;;;6.70;99.90;;;;;;5030606;28;20230;-75
2022/11/05 04:05:29;;;;;;;10.57;6.47;;;6.70;99.90;;;;;;5021843;28;20246;-74
2022/11/05 04:13:27;;;;;;;15.52;6.28;;;6.60;99.90;;;;;;5026511;28;20710;-74
2022/11/05 04:18:41;;;;;;;12.85;7.43;;;6.60;99.90;;;;;;5035448;28;20209;-75
2022/11/05 04:24:09;;;;;;;10.30;6.07;;;6.60;99.90;;;;;;5034618;28;20239;-75
2022/11/05 04:26:37;;;;;;;10.50;6.88;;;6.60;99.90;;;;;;5034867;28;20307;-74
2022/11/05 04:31:49;;;;;;;12.73;7.10;;;6.60;99.90;;;;;;5028028;28;20230;-73
2022/11/05 04:34:17;;;;;;;11.57;6.18;;;6.70;99.90;;;;;;5016626;28;20206;-74
2022/11/05 04:36:48;;;;;;;16.13;6.30;;;6.70;99.90;;;;;;5021016;28;20276;-74
2022/11/05 04:39:16;;;;;;;15.32;9.10;;;6.70;99.90;;;;;;5025114;28;20250;-74
2022/11/05 04:41:45;;;;;;;8.98;6.45;;;6.70;99.90;;;;;;5021153;28;20587;-73
2022/11/05 04:44:12;;;;;;;16.38;6.70;;;6.60;99.90;;;;;;5017113;28;20202;-73
2022/11/05 04:46:40;;;;;;;13.00;8.23;;;6.50;99.90;;;;;;5026632;28;20631;-73
2022/11/05 04:49:07;;;;;;;10.32;8.23;;;6.50;99.90;;;;;;5018615;28;20728;-74
2022/11/05 04:51:34;;;;;;;15.70;8.15;;;6.40;99.90;;;;;;5027138;28;20234;-74
2022/11/05 04:54:03;;;;;;;11.07;6.55;;;6.30;99.90;;;;;;5020795;28;20529;-74
2022/11/05 04:56:30;;;;;;;10.50;7.15;;;6.30;99.90;;;;;;5018786;28;20290;-74
2022/11/05 04:58:57;;;;;;;11.55;7.05;;;6.30;99.90;;;;;;5024049;28;20302;-74
2022/11/05 05:01:25;;;;;;;13.52;8.82;;;6.20;99.90;;;;;;5033462;28;20289;-74
2022/11/05 05:03:53;;;;;;;13.43;8.18;;;6.30;99.90;;;;;;5025098;28;20227;-74
2022/11/05 05:06:20;;;;;;;11.35;8.32;;;6.20;99.90;;;;;;5032984;28;20275;-75
2022/11/05 05:08:48;;;;;;;11.75;8.25;;;6.20;99.90;;;;;;5033427;28;20213;-74
2022/11/05 05:11:18;;;;;;;22.75;8.95;;;6.20;99.90;;;;;;5021410;28;20199;-75
2022/11/05 05:13:46;;;;;;;8.57;6.78;;;6.30;99.90;;;;;;5033131;28;20288;-76
2022/11/05 05:16:18;;;;;;;19.30;8.35;;;6.30;99.90;;;;;;5030641;28;20279;-74
2022/11/05 05:18:46;;;;;;;9.85;7.20;;;6.40;99.90;;;;;;5026838;28;20210;-75
2022/11/05 05:23:57;;;;;;;16.45;7.43;;;6.30;99.90;;;;;;5025705;28;20221;-74
2022/11/05 05:26:26;;;;;;;16.48;7.70;;;6.20;99.90;;;;;;5023411;28;20225;-74
2022/11/05 05:28:53;;;;;;;11.82;8.75;;;6.20;99.90;;;;;;5023095;28;20676;-74
2022/11/05 05:31:21;;;;;;;16.30;9.45;;;6.10;99.90;;;;;;5032582;28;20202;-75
2022/11/05 05:33:48;;;;;;;20.42;10.23;;;6.10;99.90;;;;;;5022253;28;20317;-75
2022/11/05 05:36:15;;;;;;;12.40;8.93;;;6.10;99.90;;;;;;5023936;28;20286;-75
2022/11/05 05:38:44;;;;;;;14.20;8.48;;;6.10;99.90;;;;;;5027061;28;20289;-74
2022/11/05 05:41:11;;;;;;;14.65;9.27;;;6.20;99.90;;;;;;5022969;28;20285;-72
2022/11/05 05:43:40;;;;;;;18.23;9.65;;;6.10;99.90;;;;;;5021660;28;20217;-74
2022/11/05 05:46:09;;;;;;;17.08;9.43;;;6.10;99.90;;;;;;5032772;28;20296;-74
2022/11/05 05:48:37;;;;;;;21.30;10.15;;;6.10;99.90;;;;;;5034214;28;20216;-74
2022/11/05 05:51:07;;;;;;;11.48;9.30;;;6.10;99.90;;;;;;5019824;28;20215;-74
2022/11/05 05:53:34;;;;;;;14.10;9.55;;;6.10;99.90;;;;;;5022663;28;20237;-73
2022/11/05 05:56:02;;;;;;;16.52;9.27;;;6.10;99.90;;;;;;5029957;28;20226;-74
2022/11/05 05:58:32;;;;;;;12.00;9.30;;;6.10;99.90;;;;;;5045035;28;20707;-74
2022/11/05 06:01:02;;;;;;;19.38;11.23;;;6.10;99.90;;;;;;5050354;28;20230;-73
2022/11/05 06:03:29;;;;;;;15.93;10.90;;;6.10;99.90;;;;;;5028688;28;20329;-75
2022/11/05 06:06:01;;;;;;;21.55;9.27;;;6.10;99.90;;;;;;5026762;28;20732;-74
2022/11/05 06:08:28;;;;;;;19.10;10.20;;;6.10;99.90;;;;;;5034144;28;20213;-75
2022/11/05 06:10:55;;;;;;;19.48;11.55;;;6.10;99.90;;;;;;5029312;28;20234;-73
2022/11/05 06:13:22;;;;;;;12.70;9.40;;;6.10;99.90;;;;;;5031596;28;20298;-74
2022/11/05 06:15:49;;;;;;;21.02;10.85;;;6.10;99.90;;;;;;5032869;28;20226;-75
2022/11/05 06:18:18;;;;;;;16.80;10.73;;;6.10;99.90;;;;;;5024026;28;20290;-73
2022/11/05 06:20:45;;;;;;;14.85;10.23;;;6.10;99.90;;;;;;5031104;28;20253;-74
2022/11/05 06:23:12;;;;;;;16.48;11.05;;;6.10;99.90;;;;;;5025845;28;20266;-73
2022/11/05 06:25:39;;;;;;;19.75;11.23;;;6.10;99.90;;;;;;5023937;28;20206;-74
2022/11/05 06:28:06;;;;;;;12.20;10.75;;;6.10;99.90;;;;;;5026480;28;20198;-73
2022/11/05 06:30:39;;;;;;;19.27;12.15;;;6.10;99.90;;;;;;5048788;28;20244;-74
2022/11/05 06:33:06;;;;;;;20.27;11.05;;;6.10;99.90;;;;;;5035217;28;20301;-73
2022/11/05 06:35:34;;;;;;;21.77;11.73;;;6.00;99.90;;;;;;5029023;28;20242;-73
2022/11/05 06:38:01;;;;;;;15.77;10.75;;;6.00;99.90;;;;;;5024065;28;20292;-75
2022/11/05 06:40:29;;;;;;;15.27;10.85;;;6.10;99.90;;;;;;5014723;28;20571;-72
2022/11/05 06:42:56;;;;;;;15.40;12.40;;;6.10;99.90;;;;;;5022403;28;20663;-73
2022/11/05 06:45:27;;;;;;;17.17;11.90;;;6.10;99.90;;;;;;5029697;28;20216;-72
2022/11/05 06:47:58;;;;;;;17.90;12.35;;;6.10;99.90;;;;;;5023351;28;20571;-73
2022/11/05 06:50:25;;;;;;;17.83;10.52;;;6.10;99.90;;;;;;5021340;28;20285;-72
2022/11/05 06:53:04;;;;;;;16.50;11.63;;;6.10;99.90;;;;;;5022439;28;20223;-76
2022/11/05 06:55:37;;;;;;;19.13;11.70;;;6.30;99.90;;;;;;5027754;28;20301;-73
2022/11/05 06:58:13;;;;;;;19.77;11.52;;;6.50;99.90;;;;;;5027823;28;20206;-73
2022/11/05 07:00:43;;;;;;;12.93;9.88;;;6.70;99.90;;;;;;5025593;28;20203;-74
2022/11/05 07:03:11;;;;;;;11.85;9.60;;;6.90;99.90;;;;;;5025563;28;20245;-74
2022/11/05 07:05:42;;;;;;;13.07;8.48;;;7.10;99.90;;;;;;5015809;28;20290;-72
2022/11/05 07:08:10;;;;;;;12.13;8.40;;;7.30;99.90;;;;;;5016529;28;20339;-73
2022/11/05 07:10:37;;;;;;;13.25;9.75;;;7.50;99.90;;;;;;5023609;28;20288;-75
2022/11/05 07:13:04;;;;;;;17.70;8.50;;;7.70;99.90;;;;;;5026897;28;20216;-73
2022/11/05 07:15:31;;;;;;;10.15;7.35;;;7.80;99.90;;;;;;5020604;28;20200;-73
2022/11/05 07:17:59;;;;;;;14.43;7.90;;;8.00;99.90;;;;;;5019948;28;20227;-72
2022/11/05 07:20:27;;;;;;;12.18;8.13;;;8.00;99.90;;;;;;5022003;28;20247;-72
2022/11/05 07:23:02;;;;;;;10.15;8.18;;;8.10;99.90;;;;;;5022351;28;20311;-72
2022/11/05 07:25:31;;;;;;;11.40;7.70;;;8.20;99.90;;;;;;5015119;28;20235;-74
2022/11/05 07:27:58;;;;;;;11.85;9.07;;;8.20;99.90;;;;;;5018800;28;20302;-74
2022/11/05 07:30:25;;;;;;;13.43;7.53;;;8.30;99.90;;;;;;5020166;28;20286;-73
2022/11/05 07:32:52;;;;;;;13.60;7.30;;;8.60;99.90;;;;;;5018976;28;20220;-73
2022/11/05 07:35:19;;;;;;;11.07;6.45;;;8.90;99.90;;;;;;5023136;28;20262;-73
2022/11/05 07:37:48;;;;;;;9.02;5.88;;;9.30;99.90;;;;;;5022859;28;20239;-72
2022/11/05 07:40:18;;;;;;;8.65;5.65;;;10.10;99.90;;;;;;5021153;28;20250;-73
2022/11/05 07:42:48;;;;;;;13.65;7.05;;;10.80;99.90;;;;;;5023904;28;20315;-75
2022/11/05 07:45:15;;;;;;;7.68;5.25;;;11.20;99.90;;;;;;5026868;28;20290;-76
2022/11/05 07:47:46;;;;;;;8.35;5.55;;;11.80;99.90;;;;;;5028345;28;20287;-75
2022/11/05 07:50:14;;;;;;;6.95;4.75;;;12.20;99.90;;;;;;5016240;28;20215;-75
2022/11/05 07:52:48;;;;;;;8.65;5.65;;;12.60;99.90;;;;;;5032924;28;20220;-74
2022/11/05 07:55:16;;;;;;;10.23;6.60;;;12.40;99.90;;;;;;5031311;28;20231;-78
2022/11/05 07:57:43;;;;;;;7.93;5.05;;;12.90;99.90;;;;;;5032421;28;20725;-75
2022/11/05 08:00:14;;;;;;;8.02;5.10;;;13.60;99.90;;;;;;5030358;28;20212;-76
2022/11/05 08:02:42;;;;;;;7.80;5.57;;;14.10;99.90;;;;;;5028813;28;20348;-74
2022/11/05 08:05:09;;;;;;;5.97;4.30;;;14.90;99.90;;;;;;5025148;28;20948;-73
2022/11/05 08:07:53;;;;;;;5.03;4.57;;;15.50;99.90;;;;;;5029739;28;20541;-74
2022/11/05 08:10:20;;;;;;;6.20;4.87;;;15.30;99.50;;;;;;5013420;28;20531;-74
2022/11/05 08:12:47;;;;;;;9.50;5.20;;;15.40;99.90;;;;;;5025781;28;20478;-73
2022/11/05 08:15:16;;;;;;;6.07;4.93;;;15.30;98.90;;;;;;5030571;28;20563;-76
2022/11/05 08:17:46;;;;;;;7.90;4.13;;;15.40;99.30;;;;;;5037689;28;20447;-77
2022/11/05 08:20:14;;;;;;;5.67;4.30;;;15.70;98.70;;;;;;5028317;28;20475;-73
2022/11/05 08:22:43;;;;;;;9.30;5.43;;;15.70;99.20;;;;;;5025073;28;20557;-73
2022/11/05 08:25:10;;;;;;;6.80;4.60;;;16.20;98.10;;;;;;5023848;28;20482;-75
2022/11/05 08:27:37;;;;;;;5.50;4.00;;;16.80;96.70;;;;;;5022755;28;20498;-75
2022/11/05 08:30:06;;;;;;;8.63;4.83;;;16.60;96.20;;;;;;5022651;28;20479;-74
2022/11/05 08:32:35;;;;;;;5.10;3.93;;;16.60;96.10;;;;;;5026261;28;20475;-74
2022/11/05 08:35:01;;;;;;;6.13;3.70;;;17.40;96.00;;;;;;5030868;28;20505;-73
2022/11/05 08:37:29;;;;;;;11.63;8.40;;;17.80;94.40;;;;;;5033909;28;20530;-74
2022/11/05 08:39:56;;;;;;;8.30;4.47;;;17.90;94.60;;;;;;5021897;28;20483;-75
2022/11/05 08:42:23;;;;;;;6.90;4.10;;;18.00;94.20;;;;;;5024872;28;20551;-74
2022/11/05 08:44:49;;;;;;;5.20;3.93;;;18.10;92.80;;;;;;5021201;28;20854;-75
2022/11/05 08:47:16;;;;;;;10.40;5.47;;;17.70;93.10;;;;;;5025419;28;20541;-75
2022/11/05 08:49:45;;;;;;;7.90;4.50;;;17.70;94.20;;;;;;5028285;28;20577;-77
2022/11/05 08:52:13;;;;;;;10.97;4.70;;;17.90;94.10;;;;;;5034948;28;20888;-75
2022/11/05 08:54:41;;;;;;;9.40;3.70;;;16.90;94.20;;;;;;5035278;28;20451;-75
2022/11/05 08:57:08;;;;;;;5.77;3.70;;;17.20;94.50;;;;;;5033583;28;20454;-74
2022/11/05 08:59:35;;;;;;;7.90;4.00;;;17.30;94.40;;;;;;5027067;28;20452;-76
2022/11/05 09:02:02;;;;;;;5.83;3.90;;;17.70;94.20;;;;;;5035273;28;20948;-75
2022/11/05 09:04:29;;;;;;;5.43;3.43;;;18.00;93.30;;;;;;5033503;28;20564;-75
2022/11/05 09:07:00;;;;;;;6.43;3.70;;;17.80;93.40;;;;;;5029072;28;20497;-74
2022/11/05 09:09:27;;;;;;;6.80;3.70;;;17.80;93.40;;;;;;5032370;28;20467;-75
2022/11/05 09:11:53;;;;;;;6.37;3.90;;;17.40;93.90;;;;;;5035337;28;20474;-74
2022/11/05 09:14:21;;;;;;;4.50;3.60;;;17.60;94.20;;;;;;5027644;28;20439;-74
2022/11/05 09:16:48;;;;;;;9.87;4.97;;;18.00;93.30;;;;;;5030449;28;20448;-75
2022/11/05 09:19:15;;;;;;;5.20;3.90;;;17.80;93.20;;;;;;5030368;28;20535;-73
2022/11/05 09:21:42;;;;;;;4.30;3.60;;;17.70;93.30;;;;;;5035361;28;20524;-75
2022/11/05 09:24:10;;;;;;;4.53;3.50;;;17.40;93.70;;;;;;5030868;28;20571;-74
2022/11/05 09:26:37;;;;;;;9.87;4.50;;;18.00;93.40;;;;;;5032405;28;20447;-75
2022/11/05 09:29:04;;;;;;;4.53;3.60;;;17.90;93.10;;;;;;5021478;28;20560;-75
2022/11/05 09:31:31;;;;;;;8.43;4.10;;;17.10;93.40;;;;;;5034925;28;20513;-74
2022/11/05 09:33:58;;;;;;;8.03;3.60;;;17.60;93.90;;;;;;5026201;28;20901;-75
2022/11/05 09:36:26;;;;;;;8.90;3.80;;;17.30;94.00;;;;;;5035216;28;20478;-73
2022/11/05 09:38:54;;;;;;;6.73;4.43;;;17.50;93.90;;;;;;5028782;28;20487;-74
2022/11/05 09:41:29;;;;;;;10.90;4.10;;;17.80;93.30;;;;;;5019022;28;20534;-74
2022/11/05 09:44:01;;;;;;;5.07;3.90;;;17.70;92.90;;;;;;5012278;28;21085;-74
2022/11/05 09:46:36;;;;;;;14.83;4.80;;;16.80;93.30;;;;;;5016440;28;20475;-74
2022/11/05 09:49:06;;;;;;;5.80;3.93;;;16.50;94.70;;;;;;5032145;28;20516;-72
2022/11/05 09:51:35;;;;;;;7.50;4.13;;;16.50;95.00;;;;;;5030934;28;20474;-74
2022/11/05 09:54:04;;;;;;;5.50;4.07;;;16.80;94.90;;;;;;5031789;28;20441;-75
2022/11/05 09:56:35;;;;;;;5.43;4.30;;;16.60;95.10;;;;;;5034961;28;20461;-74
2022/11/05 09:59:06;;;;;;;7.73;4.40;;;16.90;95.50;;;;;;5034320;28;20455;-75
2022/11/05 10:01:37;;;;;;;5.17;4.20;;;16.60;94.50;;;;;;5035617;28;20524;-74
2022/11/05 10:04:10;;;;;;;8.20;5.50;;;15.80;96.20;;;;;;5047626;28;20542;-73
2022/11/05 10:06:43;;;;;;;5.60;3.63;;;16.40;97.40;;;;;;5025360;28;20482;-76
2022/11/05 10:09:18;;;;;;;3.63;3.30;;;16.70;95.70;;;;;;5027739;28;20465;-74
2022/11/05 10:11:49;;;;;;;9.10;4.47;;;16.60;95.60;;;;;;5006892;28;20517;-73
2022/11/05 10:14:20;;;;;;;5.33;3.40;;;16.50;95.90;;;;;;5030930;28;20478;-74
2022/11/05 10:16:53;;;;;;;7.30;4.07;;;16.50;95.80;;;;;;5026059;28;20930;-73
2022/11/05 10:19:24;;;;;;;5.00;3.87;;;16.70;95.50;;;;;;5024122;28;20842;-74
2022/11/05 10:21:54;;;;;;;8.73;4.15;;;16.30;96.00;;;;;;5031525;28;20478;-74
2022/11/05 10:24:21;;;;;;;6.00;3.10;;;15.80;97.30;;;;;;5033480;28;20232;-74
2022/11/05 10:26:52;;;;;;;7.28;4.20;;;15.10;98.60;;;;;;5031112;28;20709;-74
2022/11/05 10:29:28;;;;;;;5.88;4.00;;;14.90;99.90;;;;;;5025919;28;20227;-74
2022/11/05 10:31:55;;;;;;;8.27;4.32;;;14.70;99.90;;;;;;5031334;28;20219;-74
2022/11/05 10:34:25;;;;;;;8.75;4.45;;;14.60;99.90;;;;;;5033452;28;20200;-73
2022/11/05 10:36:53;;;;;;;7.85;4.90;;;14.30;99.90;;;;;;5033920;28;20204;-74
2022/11/05 10:39:22;;;;;;;5.30;3.83;;;14.00;99.90;;;;;;5027682;28;20250;-73
2022/11/05 10:42:09;;;;;;;6.15;4.20;;;13.60;99.90;;;;;;5024605;28;20224;-73
2022/11/05 10:44:41;;;;;;;7.00;4.30;;;13.80;99.90;;;;;;5031847;28;20566;-74
2022/11/05 10:47:35;;;;;;;7.60;5.78;;;13.50;99.90;;;;;;5021032;28;20209;-72
2022/11/05 10:50:04;;;;;;;6.65;3.42;;;13.50;99.90;;;;;;5002082;28;20205;-73
2022/11/05 10:52:33;;;;;;;6.57;5.22;;;13.60;99.90;;;;;;5031724;28;20257;-73
2022/11/05 10:55:06;;;;;;;8.13;3.83;;;13.50;99.90;;;;;;5024973;28;20678;-75
2022/11/05 10:57:37;;;;;;;4.70;4.03;;;13.60;99.90;;;;;;5029275;28;20201;-74
2022/11/05 11:00:30;;;;;;;12.82;7.30;;;13.70;99.90;;;;;;5018620;28;20209;-75
2022/11/05 11:03:00;;;;;;;7.20;4.13;;;13.70;99.90;;;;;;5024104;28;20314;-73
2022/11/05 11:05:31;;;;;;;7.05;4.88;;;13.80;99.90;;;;;;5030163;28;20267;-72
2022/11/05 11:08:18;;;;;;;7.78;4.22;;;13.80;99.90;;;;;;5031454;28;20231;-74
2022/11/05 11:10:51;;;;;;;6.30;5.50;;;13.60;99.90;;;;;;5020719;28;20208;-73
2022/11/05 11:13:22;;;;;;;7.53;4.72;;;13.30;99.90;;;;;;5027659;28;20222;-74
2022/11/05 11:15:50;;;;;;;8.00;4.25;;;13.30;99.90;;;;;;5019770;28;20629;-72
2022/11/05 11:18:28;;;;;;;7.10;4.85;;;13.20;99.90;;;;;;5027775;28;20203;-73
2022/11/05 11:21:06;;;;;;;7.28;4.82;;;13.30;99.90;;;;;;5027300;28;20654;-75
2022/11/05 11:23:38;;;;;;;7.57;4.32;;;13.30;99.90;;;;;;5013079;28;20230;-71
2022/11/05 11:26:06;;;;;;;5.75;4.00;;;13.20;99.90;;;;;;5031352;28;20647;-73
2022/11/05 11:28:38;;;;;;;10.23;4.97;;;13.10;99.90;;;;;;5032038;28;20262;-73
2022/11/05 11:31:08;;;;;;;6.97;4.60;;;13.10;99.90;;;;;;5029230;28;20231;-71
2022/11/05 11:33:37;;;;;;;6.32;5.13;;;13.20;99.90;;;;;;5027704;28;20219;-73
2022/11/05 11:36:05;;;;;;;6.40;4.30;;;13.10;99.90;;;;;;5024271;28;20311;-72
2022/11/05 11:38:35;;;;;;;5.70;4.63;;;13.10;99.90;;;;;;5023426;28;20291;-72
2022/11/05 11:41:08;;;;;;;8.68;5.38;;;13.00;99.90;;;;;;5019803;28;20220;-74
2022/11/05 11:43:39;;;;;;;5.20;4.10;;;13.00;99.90;;;;;;5019090;28;20224;-75
2022/11/05 11:46:14;;;;;;;8.45;4.85;;;12.90;99.90;;;;;;5022827;28;20240;-75
2022/11/05 11:48:44;;;;;;;9.20;4.60;;;13.00;99.90;;;;;;5032777;28;20663;-74
2022/11/05 11:51:31;;;;;;;5.90;4.57;;;13.00;99.90;;;;;;5033926;28;20670;-74
2022/11/05 11:53:59;;;;;;;7.28;4.97;;;13.00;99.90;;;;;;5023845;28;20211;-73
2022/11/05 11:56:27;;;;;;;7.55;4.15;;;13.10;99.90;;;;;;5025762;28;20213;-73
2022/11/05 11:58:58;;;;;;;10.50;4.22;;;13.20;99.90;;;;;;5028197;28;20622;-73
2022/11/05 12:01:49;;;;;;;5.00;4.10;;;13.20;99.90;;;;;;5028476;28;20651;-74
2022/11/05 12:04:39;;;;;;;6.20;4.30;;;13.30;99.90;;;;;;5027956;28;20278;-73
2022/11/05 12:07:20;;;;;;;7.20;4.50;;;13.40;99.90;;;;;;5023690;28;20204;-74
2022/11/05 12:10:00;;;;;;;6.78;4.22;;;13.20;99.90;;;;;;4999515;28;21137;-73
2022/11/05 12:12:39;;;;;;;7.10;4.10;;;13.20;99.90;;;;;;5016585;28;20232;-74
2022/11/05 12:15:27;;;;;;;6.50;4.68;;;13.20;99.90;;;;;;5019140;28;20196;-74
2022/11/05 12:18:00;;;;;;;5.40;3.70;;;13.20;99.90;;;;;;5014051;28;20639;-73
2022/11/05 12:20:55;;;;;;;9.35;5.00;;;13.20;99.90;;;;;;5023105;28;20219;-74
2022/11/05 12:23:51;;;;;;;4.60;3.30;;;13.30;99.90;;;;;;5020457;28;20766;-73
2022/11/05 12:26:28;;;;;;;4.72;2.85;;;13.10;99.90;;;;;;5017929;28;20337;-74
2022/11/05 12:29:08;;;;;;;6.28;3.97;;;13.10;99.90;;;;;;5034792;28;20228;-72
2022/11/05 12:31:47;;;;;;;6.55;3.97;;;13.10;99.90;;;;;;5032395;28;20228;-73
2022/11/05 12:34:32;;;;;;;6.00;4.65;;;13.10;99.90;;;;;;5001368;28;20669;-74
2022/11/05 12:37:22;;;;;;;6.85;4.82;;;13.10;99.90;;;;;;5008987;28;20292;-74
2022/11/05 12:40:16;;;;;;;10.43;4.85;;;13.20;99.90;;;;;;5013116;28;20208;-73
2022/11/05 12:42:54;;;;;;;6.30;4.18;;;13.00;99.90;;;;;;5019630;28;20236;-73
2022/11/05 12:45:32;;;;;;;4.47;4.07;;;13.00;99.90;;;;;;5029083;28;20217;-74
2022/11/05 12:48:32;;;;;;;9.68;3.85;;;13.00;99.90;;;;;;5010359;28;20204;-73
2022/11/05 12:51:07;;;;;;;5.40;4.35;;;13.10;99.90;;;;;;5000822;28;20283;-74
2022/11/05 12:54:01;;;;;;;4.70;4.10;;;13.30;99.90;;;;;;5029420;28;20224;-75
2022/11/05 12:56:33;;;;;;;6.05;2.97;;;13.40;99.90;;;;;;5030117;28;20230;-75
2022/11/05 12:59:05;;;;;;;9.68;3.80;;;13.30;99.90;;;;;;5031044;28;20276;-74
2022/11/05 13:01:36;;;;;;;7.55;4.00;;;13.30;99.90;;;;;;5021809;28;20323;-74
2022/11/05 13:04:13;;;;;;;8.38;4.13;;;13.40;99.90;;;;;;5033899;28;20212;-74
2022/11/05 13:06:43;;;;;;;9.45;3.53;;;13.30;99.90;;;;;;5032030;28;20728;-74
2022/11/05 13:09:16;;;;;;;4.88;4.00;;;13.40;99.90;;;;;;5034123;28;20274;-73
2022/11/05 13:11:50;;;;;;;5.35;3.47;;;13.40;99.90;;;;;;5031367;28;20675;-73
2022/11/05 13:14:22;;;;;;;7.93;5.25;;;13.40;99.90;;;;;;5030941;28;20628;-73
2022/11/05 13:16:52;;;;;;;3.92;3.38;;;13.30;99.90;;;;;;5030861;28;20235;-73
2022/11/05 13:19:24;;;;;;;7.50;3.08;;;13.30;99.90;;;;;;5031992;28;20279;-72
2022/11/05 13:21:54;;;;;;;3.72;3.10;;;13.30;99.90;;;;;;5031662;28;20232;-73
2022/11/05 13:24:26;;;;;;;5.82;3.45;;;13.20;99.90;;;;;;5031053;28;20283;-73
2022/11/05 13:27:01;;;;;;;6.00;3.13;;;13.20;99.90;;;;;;5032396;28;20597;-73
2022/11/05 13:29:34;;;;;;;3.17;2.75;;;13.10;99.90;;;;;;5022926;28;20614;-73
2022/11/05 13:32:08;;;;;;;3.72;3.10;;;13.00;99.90;;;;;;5028293;28;20303;-74
2022/11/05 13:34:36;;;;;;;6.07;3.33;;;13.00;99.90;;;;;;5034094;28;20291;-75
2022/11/05 13:39:56;;;;;;;6.22;4.75;;;12.90;99.90;;;;;;5045994;28;20227;-71
2022/11/05 13:42:56;;;;;;;6.78;3.58;;;12.90;99.90;;;;;;5030504;28;20318;-73
2022/11/05 13:45:54;;;;;;;4.93;4.03;;;12.80;99.90;;;;;;5026633;28;20298;-73
2022/11/05 13:48:51;;;;;;;4.57;3.90;;;12.70;99.90;;;;;;5027616;28;20678;-74
2022/11/05 13:51:36;;;;;;;6.80;4.05;;;12.70;99.90;;;;;;5029230;28;20211;-73